createdAt,value
2022-08-26T00:00:16.276Z,98173.13
2022-08-26T00:01:19.129Z,98181.50
2022-08-26T00:02:30.806Z,98146.44
2022-08-26T00:03:32.585Z,98190.91
2022-08-26T00:04:34.568Z,98182.13
2022-08-26T00:05:36.346Z,98194.53
2022-08-26T00:06:42.659Z,98161.31
2022-08-26T00:07:48.154Z,98182.59
2022-08-26T00:08:50.484Z,98182.59
2022-08-26T00:09:54.522Z,98180.22
2022-08-26T00:10:57.190Z,98185.47
2022-08-26T00:12:01.715Z,98182.94
2022-08-26T00:13:04.608Z,98191.03
2022-08-26T00:14:06.762Z,98191.84
2022-08-26T00:15:11.839Z,98201.88
2022-08-26T00:16:14.398Z,98196.78
2022-08-26T00:17:16.280Z,98179.13
2022-08-26T00:18:22.250Z,98192.47
2022-08-26T00:19:24.391Z,98178.22
2022-08-26T00:20:29.255Z,98179.13
2022-08-26T00:21:31.042Z,98176.75
2022-08-26T00:22:33.044Z,98176.75
2022-08-26T00:23:35.157Z,98174.38
2022-08-26T00:24:36.908Z,98187.25
2022-08-26T00:25:42.494Z,98188.03
2022-08-26T00:26:44.764Z,98191.53
2022-08-26T00:27:47.962Z,98189.63
2022-08-26T00:28:50.188Z,98183.09
2022-08-26T00:29:51.952Z,98187.72
2022-08-26T00:30:55.279Z,98178.22
2022-08-26T00:31:57.715Z,98172.00
2022-08-26T00:32:59.515Z,98179.13
2022-08-26T00:34:01.222Z,98179.59
2022-08-26T00:35:03.800Z,98177.53
2022-08-26T00:36:07.592Z,98135.97
2022-08-26T00:37:13.407Z,98173.59
2022-08-26T00:38:17.559Z,98185.47
2022-08-26T00:39:20.366Z,98177.22
2022-08-26T00:40:31.119Z,98176.25
2022-08-26T00:41:34.282Z,98178.00
2022-08-26T00:42:36.223Z,98181.66
2022-08-26T00:43:47.239Z,98173.06
2022-08-26T00:44:49.918Z,98175.78
2022-08-26T00:46:07.473Z,98175.47
2022-08-26T00:47:21.838Z,98175.78
2022-08-26T00:48:27.978Z,98179.13
2022-08-26T00:49:40.842Z,98166.59
2022-08-26T00:50:53.417Z,98180.13
2022-08-26T00:51:57.056Z,98175.03
2022-08-26T00:53:01.764Z,98182.50
2022-08-26T00:54:08.024Z,98182.50
2022-08-26T00:55:24.555Z,98186.31
2022-08-26T00:56:42.238Z,98184.25
2022-08-26T00:57:45.142Z,98149.66
2022-08-26T00:58:48.192Z,98181.88
2022-08-26T00:59:55.315Z,98168.41
2022-08-26T01:00:57.148Z,98188.09
2022-08-26T01:01:59.168Z,98175.03
2022-08-26T01:03:02.697Z,98179.22
2022-08-26T01:04:08.153Z,98186.00
2022-08-26T01:05:11.828Z,98162.69
2022-08-26T01:06:14.555Z,98187.44
2022-08-26T01:07:16.512Z,98181.59
2022-08-26T01:08:18.391Z,98180.81
2022-08-26T01:09:22.295Z,98185.41
2022-08-26T01:10:31.366Z,98189.56
2022-08-26T01:11:33.431Z,98182.22
2022-08-26T01:12:42.612Z,98182.56
2022-08-26T01:13:44.621Z,98186.38
2022-08-26T01:14:47.849Z,98180.31
2022-08-26T01:15:56.960Z,98177.00
2022-08-26T01:16:59.402Z,98185.41
2022-08-26T01:18:05.498Z,98178.53
2022-08-26T01:19:18.949Z,98170.31
2022-08-26T01:21:00.014Z,98183.66
2022-08-26T01:22:21.007Z,98178.59
2022-08-26T01:23:24.140Z,98173.50
2022-08-26T01:24:29.251Z,98161.44
2022-08-26T01:25:35.078Z,98174.94
2022-08-26T01:26:41.637Z,98175.72
2022-08-26T01:27:43.991Z,98174.47
2022-08-26T01:28:51.422Z,98164.47
2022-08-26T01:29:53.828Z,98176.38
2022-08-26T01:30:57.784Z,98171.63
2022-08-26T01:31:59.737Z,98168.59
2022-08-26T01:33:05.045Z,98157.16
2022-08-26T01:34:16.788Z,98163.97
2022-08-26T01:35:20.452Z,98158.56
2022-08-26T01:36:23.247Z,98156.50
2022-08-26T01:37:29.660Z,98161.28
2022-08-26T01:38:31.673Z,98148.25
2022-08-26T01:39:35.862Z,98164.78
2022-08-26T01:40:40.088Z,98158.56
2022-08-26T01:41:44.161Z,98163.97
2022-08-26T01:42:46.907Z,98149.66
2022-08-26T01:43:53.430Z,98165.56
2022-08-26T01:44:59.745Z,98165.41
2022-08-26T01:46:02.664Z,98166.22
2022-08-26T01:47:06.439Z,98154.13
2022-08-26T01:48:13.816Z,98168.44
2022-08-26T01:49:16.686Z,98154.44
2022-08-26T01:50:27.841Z,98131.41
2022-08-26T01:51:37.338Z,98146.16
2022-08-26T01:52:43.314Z,98145.56
2022-08-26T01:53:46.080Z,98149.19
2022-08-26T01:54:50.462Z,98149.84
2022-08-26T01:55:57.590Z,98146.50
2022-08-26T01:57:01.412Z,98153.19
2022-08-26T01:58:08.202Z,98145.06
2022-08-26T01:59:15.081Z,98155.72
2022-08-26T02:00:16.901Z,98160.47
2022-08-26T02:01:20.142Z,98159.66
2022-08-26T02:02:22.519Z,98159.22
2022-08-26T02:03:27.144Z,98160.47
2022-08-26T02:04:40.563Z,98166.66
2022-08-26T02:05:51.548Z,98150.16
2022-08-26T02:06:54.218Z,98162.88
2022-08-26T02:07:55.937Z,98150.94
2022-08-26T02:09:02.197Z,98159.22
2022-08-26T02:10:04.664Z,98169.38
2022-08-26T02:11:07.385Z,98166.38
2022-08-26T02:12:12.157Z,98162.88
2022-08-26T02:13:14.010Z,98150.94
2022-08-26T02:14:21.212Z,98157.47
2022-08-26T02:15:23.095Z,98159.38
2022-08-26T02:16:27.052Z,98161.13
2022-08-26T02:17:42.370Z,98155.25
2022-08-26T02:18:46.991Z,98164.78
2022-08-26T02:19:50.686Z,98169.38
2022-08-26T02:20:54.229Z,98151.91
2022-08-26T02:21:58.943Z,98173.69
2022-08-26T02:23:01.188Z,98177.47
2022-08-26T02:24:12.412Z,98177.19
2022-08-26T02:25:24.136Z,98178.00
2022-08-26T02:26:26.924Z,98176.41
2022-08-26T02:27:32.975Z,98172.91
2022-08-26T02:29:09.870Z,98150.63
2022-08-26T02:30:18.465Z,98163.16
2022-08-26T02:31:20.274Z,98163.50
2022-08-26T02:32:22.675Z,98157.94
2022-08-26T02:33:25.053Z,98167.97
2022-08-26T02:34:31.223Z,98146.06
2022-08-26T02:35:35.557Z,98154.31
2022-08-26T02:36:37.922Z,98158.31
2022-08-26T02:37:42.017Z,98162.13
2022-08-26T02:38:43.762Z,98151.16
2022-08-26T02:39:48.103Z,98154.81
2022-08-26T02:40:49.939Z,98163.09
2022-08-26T02:41:52.861Z,98160.72
2022-08-26T02:42:55.947Z,98161.34
2022-08-26T02:43:59.219Z,98158.47
2022-08-26T02:45:01.071Z,98164.84
2022-08-26T02:46:02.860Z,98144.53
2022-08-26T02:47:05.022Z,98159.75
2022-08-26T02:48:14.751Z,98160.88
2022-08-26T02:49:17.206Z,98155.78
2022-08-26T02:50:19.816Z,98152.63
2022-08-26T02:51:21.584Z,98147.22
2022-08-26T02:52:23.913Z,98157.25
2022-08-26T02:53:25.749Z,98133.41
2022-08-26T02:54:27.961Z,98157.25
2022-08-26T02:55:29.723Z,98162.97
2022-08-26T02:56:33.485Z,98139.75
2022-08-26T02:57:37.557Z,98157.06
2022-08-26T02:58:39.583Z,98160.25
2022-08-26T02:59:41.729Z,98156.44
2022-08-26T03:00:53.545Z,98156.13
2022-08-26T03:01:56.122Z,98159.47
2022-08-26T03:02:59.168Z,98150.41
2022-08-26T03:04:03.684Z,98160.88
2022-08-26T03:05:06.560Z,98159.28
2022-08-26T03:06:08.319Z,98153.91
2022-08-26T03:07:10.361Z,98143.41
2022-08-26T03:08:12.102Z,98152.78
2022-08-26T03:09:18.861Z,98140.41
2022-08-26T03:10:22.394Z,98158.66
2022-08-26T03:11:24.809Z,98158.66
2022-08-26T03:12:27.512Z,98156.75
2022-08-26T03:13:29.777Z,98161.84
2022-08-26T03:14:31.670Z,98160.72
2022-08-26T03:15:33.522Z,98163.59
2022-08-26T03:16:36.472Z,98165.97
2022-08-26T03:17:38.990Z,98168.81
2022-08-26T03:18:41.979Z,98155.97
2022-08-26T03:19:43.763Z,98163.25
2022-08-26T03:20:46.628Z,98167.41
2022-08-26T03:21:48.624Z,98176.31
2022-08-26T03:22:53.405Z,98174.88
2022-08-26T03:23:58.752Z,98182.97
2022-08-26T03:25:00.589Z,98170.09
2022-08-26T03:26:02.957Z,98162.47
2022-08-26T03:27:05.776Z,98157.84
2022-08-26T03:28:09.682Z,98153.56
2022-08-26T03:29:30.383Z,98158.97
2022-08-26T03:30:45.328Z,98151.66
2022-08-26T03:31:47.936Z,98155.47
2022-08-26T03:32:49.750Z,98162.00
2022-08-26T03:33:51.879Z,98152.13
2022-08-26T03:34:54.122Z,98156.91
2022-08-26T03:35:55.859Z,98153.72
2022-08-26T03:36:59.020Z,98156.25
2022-08-26T03:38:01.937Z,98142.63
2022-08-26T03:39:03.886Z,98144.03
2022-08-26T03:40:10.075Z,98159.44
2022-08-26T03:41:12.401Z,98141.66
2022-08-26T03:42:15.159Z,98157.84
2022-08-26T03:43:17.807Z,98157.84
2022-08-26T03:44:19.855Z,98160.06
2022-08-26T03:45:22.012Z,98154.97
2022-08-26T03:46:23.805Z,98148.78
2022-08-26T03:47:28.613Z,98163.41
2022-08-26T03:48:30.367Z,98162.13
2022-08-26T03:49:32.393Z,98166.56
2022-08-26T03:50:35.816Z,98159.41
2022-08-26T03:51:39.031Z,98150.50
2022-08-26T03:52:43.886Z,98161.16
2022-08-26T03:53:47.851Z,98154.50
2022-08-26T03:54:50.114Z,98157.81
2022-08-26T03:55:52.178Z,98153.53
2022-08-26T03:56:54.095Z,98158.13
2022-08-26T03:57:55.954Z,98163.84
2022-08-26T03:58:57.676Z,98170.38
2022-08-26T04:00:00.294Z,98163.06
2022-08-26T04:01:02.043Z,98156.09
2022-08-26T04:02:08.458Z,98158.91
2022-08-26T04:03:33.443Z,98150.19
2022-08-26T04:04:35.524Z,98170.38
2022-08-26T04:05:38.148Z,98149.53
2022-08-26T04:06:43.430Z,98157.50
2022-08-26T04:07:47.351Z,98155.44
2022-08-26T04:08:50.360Z,98161.16
2022-08-26T04:09:57.163Z,98165.47
2022-08-26T04:10:59.244Z,98165.16
2022-08-26T04:12:01.198Z,98164.03
2022-08-26T04:13:05.206Z,98162.91
2022-08-26T04:14:14.368Z,98162.09
2022-08-26T04:15:20.021Z,98161.34
2022-08-26T04:16:22.272Z,98161.66
2022-08-26T04:17:26.334Z,98159.56
2022-08-26T04:18:32.656Z,98143.03
2022-08-26T04:19:38.987Z,98166.41
2022-08-26T04:20:40.683Z,98160.38
2022-08-26T04:21:43.491Z,98165.78
2022-08-26T04:22:46.064Z,98161.78
2022-08-26T04:23:48.577Z,98159.88
2022-08-26T04:24:50.346Z,98169.28
2022-08-26T04:25:52.190Z,98175.47
2022-08-26T04:26:54.926Z,98167.38
2022-08-26T04:27:56.975Z,98145.13
2022-08-26T04:28:59.068Z,98172.94
2022-08-26T04:30:01.286Z,98166.44
2022-08-26T04:31:03.439Z,98166.44
2022-08-26T04:32:05.253Z,98168.66
2022-08-26T04:33:08.022Z,98173.09
2022-08-26T04:34:15.770Z,98176.25
2022-08-26T04:35:17.945Z,98162.75
2022-08-26T04:36:20.335Z,98180.22
2022-08-26T04:37:22.223Z,98161.34
2022-08-26T04:38:26.587Z,98177.53
2022-08-26T04:39:28.590Z,98171.16
2022-08-26T04:40:30.761Z,98171.16
2022-08-26T04:41:33.737Z,98172.44
2022-08-26T04:42:36.092Z,98169.25
2022-08-26T04:43:38.372Z,98169.44
2022-08-26T04:44:40.670Z,98165.78
2022-08-26T04:45:43.758Z,98173.72
2022-08-26T04:46:45.530Z,98163.56
2022-08-26T04:47:47.473Z,98178.16
2022-08-26T04:48:52.458Z,98178.03
2022-08-26T04:49:57.753Z,98168.81
2022-08-26T04:51:00.129Z,98132.91
2022-08-26T04:52:01.950Z,98163.41
2022-08-26T04:53:04.611Z,98175.00
2022-08-26T04:54:08.960Z,98178.81
2022-08-26T04:55:10.690Z,98175.81
2022-08-26T04:56:13.285Z,98166.13
2022-08-26T04:57:15.156Z,98167.06
2022-08-26T04:58:19.313Z,98168.00
2022-08-26T04:59:21.641Z,98165.16
2022-08-26T05:00:23.768Z,98168.66
2022-08-26T05:01:30.007Z,98171.81
2022-08-26T05:02:31.745Z,98170.72
2022-08-26T05:03:36.456Z,98168.81
2022-08-26T05:04:38.230Z,98174.53
2022-08-26T05:05:45.865Z,98170.09
2022-08-26T05:06:48.436Z,98180.56
2022-08-26T05:07:50.181Z,98179.78
2022-08-26T05:08:52.115Z,98176.59
2022-08-26T05:09:54.811Z,98179.78
2022-08-26T05:10:56.768Z,98178.19
2022-08-26T05:11:58.469Z,98168.81
2022-08-26T05:13:00.783Z,98181.69
2022-08-26T05:14:02.581Z,98178.06
2022-08-26T05:15:04.713Z,98173.25
2022-08-26T05:16:12.489Z,98194.75
2022-08-26T05:17:15.081Z,98194.44
2022-08-26T05:18:20.570Z,98188.06
2022-08-26T05:19:23.801Z,98200.63
2022-08-26T05:20:26.319Z,98196.81
2022-08-26T05:21:29.216Z,98203.78
2022-08-26T05:22:31.014Z,98201.56
2022-08-26T05:23:35.771Z,98202.03
2022-08-26T05:24:37.459Z,98163.56
2022-08-26T05:25:42.138Z,98198.22
2022-08-26T05:26:44.961Z,98198.22
2022-08-26T05:27:47.084Z,98193.78
2022-08-26T05:28:51.673Z,98198.53
2022-08-26T05:29:57.641Z,98183.94
2022-08-26T05:30:59.394Z,98192.34
2022-08-26T05:32:01.846Z,98201.56
2022-08-26T05:33:05.250Z,98191.53
2022-08-26T05:34:08.583Z,98181.72
2022-08-26T05:35:11.005Z,98197.91
2022-08-26T05:36:16.225Z,98190.75
2022-08-26T05:37:18.111Z,98203.47
2022-08-26T05:38:21.763Z,98198.06
2022-08-26T05:39:23.603Z,98197.91
2022-08-26T05:40:25.710Z,98189.66
2022-08-26T05:41:36.637Z,98200.63
2022-08-26T05:42:40.420Z,98178.19
2022-08-26T05:43:42.217Z,98191.84
2022-08-26T05:44:53.790Z,98196.78
2022-08-26T05:46:06.637Z,98202.66
2022-08-26T05:47:08.495Z,98203.59
2022-08-26T05:48:10.861Z,98208.84
2022-08-26T05:49:15.919Z,98204.22
2022-08-26T05:50:21.977Z,98209.47
2022-08-26T05:51:26.358Z,98209.63
2022-08-26T05:52:28.406Z,98206.75
2022-08-26T05:53:30.158Z,98210.72
2022-08-26T05:54:34.055Z,98174.50
2022-08-26T05:55:47.031Z,98206.25
2022-08-26T05:56:49.314Z,98191.31
2022-08-26T05:57:51.049Z,98198.47
2022-08-26T05:58:53.239Z,98199.25
2022-08-26T05:59:54.990Z,98212.75
2022-08-26T06:01:00.003Z,98217.50
2022-08-26T06:02:02.388Z,98220.69
2022-08-26T06:03:04.712Z,98227.22
2022-08-26T06:04:08.049Z,98226.22
2022-08-26T06:05:09.826Z,98229.72
2022-08-26T06:06:14.573Z,98230.34
2022-08-26T06:07:17.074Z,98240.19
2022-08-26T06:08:21.332Z,98236.03
2022-08-26T06:09:23.735Z,98237.63
2022-08-26T06:10:32.533Z,98237.00
2022-08-26T06:11:34.998Z,98228.09
2022-08-26T06:12:37.571Z,98226.50
2022-08-26T06:13:39.533Z,98236.34
2022-08-26T06:14:41.660Z,98241.75
2022-08-26T06:15:46.056Z,98235.25
2022-08-26T06:16:48.017Z,98241.88
2022-08-26T06:17:49.889Z,98232.53
2022-08-26T06:18:53.250Z,98228.41
2022-08-26T06:19:54.953Z,98224.59
2022-08-26T06:20:57.943Z,98213.75
2022-08-26T06:22:23.307Z,98232.81
2022-08-26T06:23:46.264Z,98236.00
2022-08-26T06:25:06.498Z,98232.19
2022-08-26T06:26:11.008Z,98238.72
2022-08-26T06:27:15.241Z,98235.38
2022-08-26T06:28:17.636Z,98236.59
2022-08-26T06:29:24.710Z,98237.56
2022-08-26T06:30:26.773Z,98239.94
2022-08-26T06:31:29.849Z,98234.19
2022-08-26T06:32:31.794Z,98238.19
2022-08-26T06:33:33.934Z,98244.72
2022-08-26T06:34:36.103Z,98238.66
2022-08-26T06:35:39.943Z,98229.44
2022-08-26T06:36:45.031Z,98240.69
2022-08-26T06:37:48.000Z,98245.44
2022-08-26T06:38:50.742Z,98224.50
2022-08-26T06:39:52.531Z,98225.75
2022-08-26T06:40:55.546Z,98233.34
2022-08-26T06:41:57.290Z,98236.53
2022-08-26T06:42:58.995Z,98253.50
2022-08-26T06:44:03.074Z,98252.53
2022-08-26T06:45:05.852Z,98249.50
2022-08-26T06:46:11.866Z,98253.50
2022-08-26T06:47:13.751Z,98262.53
2022-08-26T06:48:18.038Z,98262.00
2022-08-26T06:49:26.827Z,98249.59
2022-08-26T06:50:29.358Z,98264.50
2022-08-26T06:51:34.581Z,98247.22
2022-08-26T06:52:36.464Z,98268.81
2022-08-26T06:53:39.428Z,98266.56
2022-08-26T06:54:44.222Z,98269.06
2022-08-26T06:55:47.381Z,98264.84
2022-08-26T06:56:53.953Z,98275.97
2022-08-26T06:57:56.996Z,98270.66
2022-08-26T06:58:58.913Z,98283.22
2022-08-26T07:00:00.785Z,98275.56
2022-08-26T07:01:11.421Z,98260.16
2022-08-26T07:02:13.771Z,98273.16
2022-08-26T07:03:15.676Z,98275.47
2022-08-26T07:04:21.931Z,98264.38
2022-08-26T07:05:25.803Z,98267.00
2022-08-26T07:06:28.442Z,98278.56
2022-08-26T07:07:30.728Z,98276.16
2022-08-26T07:08:32.738Z,98267.38
2022-08-26T07:09:37.494Z,98277.78
2022-08-26T07:10:39.368Z,98271.00
2022-08-26T07:11:41.601Z,98281.00
2022-08-26T07:12:43.425Z,98277.25
2022-08-26T07:13:50.583Z,98273.22
2022-08-26T07:14:53.795Z,98273.34
2022-08-26T07:15:58.128Z,98269.16
2022-08-26T07:17:11.089Z,98263.72
2022-08-26T07:18:17.257Z,98264.31
2022-08-26T07:19:30.146Z,98275.53
2022-08-26T07:20:33.055Z,98257.09
2022-08-26T07:21:35.014Z,98264.34
2022-08-26T07:22:37.750Z,98267.19
2022-08-26T07:23:40.760Z,98266.28
2022-08-26T07:24:42.668Z,98272.63
2022-08-26T07:25:45.681Z,98268.53
2022-08-26T07:26:48.055Z,98272.84
2022-08-26T07:27:54.172Z,98269.00
2022-08-26T07:28:57.862Z,98278.88
2022-08-26T07:30:02.127Z,98276.81
2022-08-26T07:31:12.407Z,98268.00
2022-08-26T07:32:16.184Z,98276.16
2022-08-26T07:33:18.271Z,98268.00
2022-08-26T07:34:20.429Z,98272.75
2022-08-26T07:35:22.332Z,98275.22
2022-08-26T07:36:25.077Z,98261.53
2022-08-26T07:37:26.803Z,98273.50
2022-08-26T07:38:33.983Z,98274.16
2022-08-26T07:39:36.329Z,98283.56
2022-08-26T07:40:41.127Z,98274.94
2022-08-26T07:41:43.197Z,98279.47
2022-08-26T07:42:44.984Z,98279.16
2022-08-26T07:43:47.375Z,98261.13
2022-08-26T07:44:49.299Z,98277.97
2022-08-26T07:45:51.061Z,98283.53
2022-08-26T07:46:53.554Z,98277.06
2022-08-26T07:47:56.183Z,98284.31
2022-08-26T07:48:58.925Z,98278.88
2022-08-26T07:50:00.743Z,98284.16
2022-08-26T07:51:03.618Z,98275.31
2022-08-26T07:52:06.331Z,98289.34
2022-08-26T07:53:08.155Z,98287.78
2022-08-26T07:54:12.464Z,98290.50
2022-08-26T07:55:14.853Z,98287.84
2022-08-26T07:56:17.733Z,98286.47
2022-08-26T07:57:19.487Z,98287.44
2022-08-26T07:58:22.664Z,98293.09
2022-08-26T07:59:25.068Z,98283.97
2022-08-26T08:00:28.052Z,98291.22
2022-08-26T08:01:31.590Z,98287.44
2022-08-26T08:02:35.017Z,98283.94
2022-08-26T08:03:36.882Z,98285.72
2022-08-26T08:04:38.668Z,98287.63
2022-08-26T08:05:41.445Z,98283.06
2022-08-26T08:06:44.683Z,98269.38
2022-08-26T08:07:46.695Z,98280.97
2022-08-26T08:08:51.760Z,98287.22
2022-08-26T08:09:53.582Z,98286.13
2022-08-26T08:10:56.416Z,98281.59
2022-08-26T08:11:58.123Z,98281.69
2022-08-26T08:13:00.425Z,98275.44
2022-08-26T08:14:02.881Z,98277.44
2022-08-26T08:15:13.624Z,98264.97
2022-08-26T08:16:15.488Z,98282.47
2022-08-26T08:17:17.196Z,98279.03
2022-08-26T08:18:21.046Z,98274.47
2022-08-26T08:19:28.414Z,98272.59
2022-08-26T08:20:38.720Z,98273.81
2022-08-26T08:21:47.100Z,98279.50
2022-08-26T08:22:50.682Z,98289.13
2022-08-26T08:23:55.495Z,98280.78
2022-08-26T08:24:57.261Z,98282.53
2022-08-26T08:26:10.466Z,98282.66
2022-08-26T08:27:12.546Z,98281.50
2022-08-26T08:28:15.941Z,98278.06
2022-08-26T08:29:17.657Z,98281.25
2022-08-26T08:30:22.766Z,98286.81
2022-08-26T08:31:57.090Z,98267.16
2022-08-26T08:32:52.875Z,98281.94
2022-08-26T08:33:55.287Z,98280.38
2022-08-26T08:34:57.665Z,98284.69
2022-08-26T08:36:00.488Z,98285.94
2022-08-26T08:37:02.603Z,98286.03
2022-08-26T08:38:05.410Z,98275.91
2022-08-26T08:39:08.905Z,98281.94
2022-08-26T08:40:18.402Z,98283.22
2022-08-26T08:42:06.106Z,98287.81
2022-08-26T08:43:16.495Z,98284.53
2022-08-26T08:44:31.230Z,98280.09
2022-08-26T08:45:57.878Z,98284.41
2022-08-26T08:47:06.241Z,98274.34
2022-08-26T08:48:27.652Z,98279.66
2022-08-26T08:49:31.931Z,98275.34
2022-08-26T08:50:41.844Z,98282.75
2022-08-26T08:51:54.871Z,98276.28
2022-08-26T08:53:23.268Z,98282.34
2022-08-26T08:54:26.947Z,98265.84
2022-08-26T08:55:41.185Z,98272.19
2022-08-26T08:56:59.724Z,98277.78
2022-08-26T08:58:12.198Z,98275.25
2022-08-26T08:59:28.096Z,98280.63
2022-08-26T09:00:42.666Z,98282.22
2022-08-26T09:02:08.987Z,98278.78
2022-08-26T09:03:21.854Z,98274.91
2022-08-26T09:04:44.980Z,98276.91
2022-08-26T09:05:51.491Z,98279.28
2022-08-26T09:06:59.110Z,98281.72
2022-08-26T09:08:06.814Z,98269.47
2022-08-26T09:09:30.418Z,98276.75
2022-08-26T09:10:34.711Z,98279.09
2022-08-26T09:11:36.941Z,98279.34
2022-08-26T09:12:38.742Z,98278.84
2022-08-26T09:13:48.261Z,98278.94
2022-08-26T09:14:52.563Z,98271.66
2022-08-26T09:16:08.451Z,98272.56
2022-08-26T09:17:27.398Z,98274.34
2022-08-26T09:18:41.919Z,98281.63
2022-08-26T09:20:03.367Z,98274.97
2022-08-26T09:21:08.213Z,98277.25
2022-08-26T09:22:10.062Z,98277.53
2022-08-26T09:23:11.993Z,98263.38
2022-08-26T09:24:13.792Z,98258.63
2022-08-26T09:25:16.174Z,98262.59
2022-08-26T09:26:29.255Z,98276.44
2022-08-26T09:27:42.875Z,98278.69
2022-08-26T09:28:55.539Z,98273.13
2022-08-26T09:29:59.539Z,98276.22
2022-08-26T09:31:14.172Z,98271.19
2022-08-26T09:32:35.352Z,98282.25
2022-08-26T09:33:37.219Z,98283.94
2022-08-26T09:34:57.446Z,98284.88
2022-08-26T09:36:18.323Z,98280.03
2022-08-26T09:37:43.262Z,98281.06
2022-08-26T09:38:46.174Z,98271.75
2022-08-26T09:39:47.943Z,98283.16
2022-08-26T09:41:26.756Z,98277.34
2022-08-26T09:42:28.456Z,98277.13
2022-08-26T09:43:30.507Z,98275.63
2022-08-26T09:44:33.386Z,98278.78
2022-08-26T09:45:40.594Z,98273.31
2022-08-26T09:47:05.452Z,98279.06
2022-08-26T09:48:08.959Z,98276.44
2022-08-26T09:49:36.096Z,98284.38
2022-08-26T09:50:55.108Z,98284.25
2022-08-26T09:52:23.699Z,98287.63
2022-08-26T09:53:30.874Z,98283.44
2022-08-26T09:54:33.564Z,98279.56
2022-08-26T09:55:36.469Z,98281.28
2022-08-26T09:56:39.376Z,98285.66
2022-08-26T09:57:55.674Z,98274.22
2022-08-26T09:59:01.120Z,98291.94
2022-08-26T10:00:24.365Z,98273.78
2022-08-26T10:01:38.428Z,98287.53
2022-08-26T10:02:47.702Z,98284.34
2022-08-26T10:03:51.984Z,98285.16
2022-08-26T10:04:56.910Z,98273.19
2022-08-26T10:06:00.504Z,98284.53
2022-08-26T10:07:05.849Z,98291.41
2022-08-26T10:08:25.146Z,98292.28
2022-08-26T10:09:29.812Z,98297.31
2022-08-26T10:10:35.604Z,98290.44
2022-08-26T10:11:43.246Z,98293.66
2022-08-26T10:12:54.003Z,98291.22
2022-08-26T10:14:01.690Z,98296.09
2022-08-26T10:15:09.690Z,98294.44
2022-08-26T10:16:19.065Z,98292.84
2022-08-26T10:17:39.084Z,98299.03
2022-08-26T10:18:46.531Z,98294.38
2022-08-26T10:20:23.371Z,98293.88
2022-08-26T10:21:37.672Z,98276.56
2022-08-26T10:23:04.105Z,98282.81
2022-08-26T10:24:11.377Z,98292.50
2022-08-26T10:25:23.288Z,98286.53
2022-08-26T10:26:45.235Z,98289.06
2022-08-26T10:28:12.152Z,98292.19
2022-08-26T10:29:17.959Z,98285.69
2022-08-26T10:30:23.842Z,98291.41
2022-08-26T10:31:40.152Z,98290.75
2022-08-26T10:32:46.949Z,98292.56
2022-08-26T10:33:48.778Z,98295.63
2022-08-26T10:34:51.581Z,98291.97
2022-08-26T10:35:57.777Z,98292.34
2022-08-26T10:37:13.895Z,98298.56
2022-08-26T10:38:21.938Z,98292.41
2022-08-26T10:39:23.647Z,98293.44
2022-08-26T10:40:37.735Z,98294.66
2022-08-26T10:41:43.496Z,98294.78
2022-08-26T10:42:56.848Z,98294.22
2022-08-26T10:44:01.655Z,98296.31
2022-08-26T10:45:11.841Z,98295.72
2022-08-26T10:46:22.556Z,98295.53
2022-08-26T10:47:38.336Z,98275.59
2022-08-26T10:49:00.776Z,98294.59
2022-08-26T10:50:05.866Z,98281.72
2022-08-26T10:51:11.580Z,98295.16
2022-08-26T10:52:22.335Z,98287.00
2022-08-26T10:53:32.980Z,98286.81
2022-08-26T10:54:46.432Z,98291.66
2022-08-26T10:56:00.503Z,98295.63
2022-08-26T10:57:50.561Z,98293.66
2022-08-26T10:58:58.248Z,98294.97
2022-08-26T11:00:29.832Z,98299.28
2022-08-26T11:01:44.340Z,98272.91
2022-08-26T11:02:52.187Z,98294.47
2022-08-26T11:04:00.515Z,98289.06
2022-08-26T11:05:15.956Z,98278.13
2022-08-26T11:06:18.885Z,98289.69
2022-08-26T11:07:44.442Z,98284.47
2022-08-26T11:09:08.721Z,98291.66
2022-08-26T11:10:16.650Z,98293.84
2022-08-26T11:11:39.716Z,98292.44
2022-08-26T11:12:41.958Z,98286.22
2022-08-26T11:14:05.478Z,98282.41
2022-08-26T11:15:14.809Z,98287.19
2022-08-26T11:16:43.593Z,98286.63
2022-08-26T11:17:45.741Z,98291.50
2022-08-26T11:18:48.884Z,98286.56
2022-08-26T11:20:02.261Z,98285.66
2022-08-26T11:21:44.523Z,98289.53
2022-08-26T11:22:47.836Z,98290.22
2022-08-26T11:23:50.476Z,98291.75
2022-08-26T11:24:52.568Z,98295.47
2022-08-26T11:26:09.796Z,98293.53
2022-08-26T11:27:35.489Z,98293.81
2022-08-26T11:28:49.277Z,98281.59
2022-08-26T11:30:10.854Z,98284.16
2022-08-26T11:31:38.431Z,98291.66
2022-08-26T11:32:40.505Z,98291.81
2022-08-26T11:33:48.476Z,98288.00
2022-08-26T11:35:00.585Z,98288.09
2022-08-26T11:36:12.386Z,98283.75
2022-08-26T11:37:17.815Z,98274.59
2022-08-26T11:38:31.508Z,98282.59
2022-08-26T11:39:57.190Z,98290.03
2022-08-26T11:41:20.987Z,98283.69
2022-08-26T11:42:32.118Z,98281.41
2022-08-26T11:43:34.150Z,98280.69
2022-08-26T11:44:40.084Z,98278.44
2022-08-26T11:46:06.901Z,98282.84
2022-08-26T11:47:14.892Z,98277.06
2022-08-26T11:48:18.405Z,98287.22
2022-08-26T11:49:20.223Z,98264.34
2022-08-26T11:50:26.527Z,98275.63
2022-08-26T11:51:28.524Z,98271.88
2022-08-26T11:52:30.738Z,98283.00
2022-08-26T11:53:39.701Z,98280.41
2022-08-26T11:54:58.898Z,98271.06
2022-08-26T11:56:06.860Z,98273.97
2022-08-26T11:57:13.625Z,98270.94
2022-08-26T11:58:16.128Z,98265.94
2022-08-26T11:59:24.144Z,98254.56
2022-08-26T12:00:34.482Z,98269.09
2022-08-26T12:01:40.047Z,98256.56
2022-08-26T12:02:42.473Z,98266.84
2022-08-26T12:03:44.431Z,98265.31
2022-08-26T12:04:49.632Z,98258.69
2022-08-26T12:05:53.327Z,98263.78
2022-08-26T12:06:57.510Z,98263.09
2022-08-26T12:08:11.925Z,98262.75
2022-08-26T12:09:29.187Z,98265.41
2022-08-26T12:10:34.192Z,98257.56
2022-08-26T12:11:38.644Z,98268.56
2022-08-26T12:12:42.619Z,98262.41
2022-08-26T12:13:57.796Z,98246.63
2022-08-26T12:15:22.057Z,98237.00
2022-08-26T12:16:26.630Z,98248.72
2022-08-26T12:17:28.558Z,98254.19
2022-08-26T12:18:37.173Z,98238.00
2022-08-26T12:19:39.161Z,98249.50
2022-08-26T12:20:56.429Z,98246.88
2022-08-26T12:22:04.495Z,98235.63
2022-08-26T12:23:06.535Z,98236.50
2022-08-26T12:24:08.556Z,98233.56
2022-08-26T12:25:12.548Z,98222.72
2022-08-26T12:26:29.989Z,98232.25
2022-08-26T12:27:42.076Z,98233.09
2022-08-26T12:29:12.587Z,98233.19
2022-08-26T12:30:28.434Z,98232.84
2022-08-26T12:31:37.786Z,98228.94
2022-08-26T12:32:57.697Z,98232.00
2022-08-26T12:34:02.650Z,98217.78
2022-08-26T12:36:18.159Z,98229.19
2022-08-26T12:37:21.207Z,98224.78
2022-08-26T12:38:24.523Z,98230.97
2022-08-26T12:39:36.390Z,98240.75
2022-08-26T12:40:44.833Z,98231.69
2022-08-26T12:42:01.928Z,98232.16
2022-08-26T12:43:06.134Z,98220.38
2022-08-26T12:44:08.402Z,98234.53
2022-08-26T12:45:10.398Z,98233.91
2022-08-26T12:46:16.754Z,98226.50
2022-08-26T12:47:42.574Z,98234.34
2022-08-26T12:48:49.754Z,98228.53
2022-08-26T12:50:08.941Z,98225.34
2022-08-26T12:51:27.207Z,98226.03
2022-08-26T12:52:31.740Z,98226.97
2022-08-26T12:53:35.966Z,98213.44
2022-08-26T12:54:57.130Z,98221.88
2022-08-26T12:56:05.464Z,98219.09
2022-08-26T12:57:12.180Z,98224.94
2022-08-26T12:58:24.048Z,98223.91
2022-08-26T12:59:26.850Z,98214.25
2022-08-26T13:00:34.869Z,98220.75
2022-08-26T13:01:43.130Z,98217.66
2022-08-26T13:02:45.097Z,98215.41